Time;durP1;ratioP1;P1;durP2;ratioP2;P2;SDS_P1;SDS_P2;PMS_P1;PMS_P2;Temp;Humidity;BMP_temperature;BMP_pressure;BME280_temperature;BME280_humidity;BME280_pressure;Samples;Min_cycle;Max_cycle;Signal;HPM_P1;HPM_P2
2022/01/03 00:01:43;;;;;;;2.33;1.37;;;2.40;99.90;;;;;;5047566;28;20660;-93
2022/01/03 00:04:18;;;;;;;1.47;1.30;;;2.40;99.90;;;;;;5070036;28;20227;-93
2022/01/03 00:06:49;;;;;;;3.30;1.50;;;2.40;99.90;;;;;;5067634;28;20208;-93
2022/01/03 00:09:20;;;;;;;2.97;1.47;;;2.40;99.90;;;;;;5073399;28;20218;-93
2022/01/03 00:11:52;;;;;;;2.00;1.50;;;2.40;99.90;;;;;;5070782;28;20537;-93
2022/01/03 00:14:24;;;;;;;4.10;2.20;;;2.40;99.90;;;;;;5077739;28;20278;-92
2022/01/03 00:16:57;;;;;;;4.10;2.70;;;2.40;99.90;;;;;;5078734;28;20267;-91
2022/01/03 00:19:29;;;;;;;4.20;2.70;;;2.40;99.90;;;;;;5068551;28;20196;-93
2022/01/03 00:22:06;;;;;;;3.10;2.30;;;2.40;99.90;;;;;;5063890;28;20232;-93
2022/01/03 00:24:40;;;;;;;2.83;2.33;;;2.30;99.90;;;;;;5050455;28;20232;-93
2022/01/03 00:27:18;;;;;;;4.77;2.40;;;2.30;99.90;;;;;;5069863;28;20207;-93
2022/01/03 00:29:51;;;;;;;2.70;2.00;;;2.30;99.90;;;;;;5046434;28;20592;-93
2022/01/03 00:32:26;;;;;;;2.70;1.80;;;2.30;99.90;;;;;;5049573;28;20211;-93
2022/01/03 00:34:59;;;;;;;3.07;2.07;;;2.30;99.90;;;;;;5052974;28;20204;-92
2022/01/03 00:37:30;;;;;;;3.63;1.87;;;2.30;99.90;;;;;;5053895;28;20215;-94
2022/01/03 00:40:02;;;;;;;2.20;2.00;;;2.30;99.90;;;;;;5069090;28;20222;-93
2022/01/03 00:42:35;;;;;;;2.40;1.70;;;2.30;99.90;;;;;;5073425;28;20267;-93
2022/01/03 00:45:08;;;;;;;4.20;2.20;;;2.30;99.90;;;;;;5059201;28;20200;-93
2022/01/03 00:47:42;;;;;;;5.20;2.37;;;2.40;99.90;;;;;;5073131;28;20210;-93
2022/01/03 00:50:15;;;;;;;3.37;2.20;;;2.40;99.90;;;;;;5076677;28;20184;-91
2022/01/03 00:52:48;;;;;;;2.60;1.83;;;2.40;99.90;;;;;;5076766;28;20196;-93
2022/01/03 00:55:19;;;;;;;4.63;2.43;;;2.40;99.90;;;;;;5058518;28;20220;-93
2022/01/03 00:57:59;;;;;;;3.50;2.10;;;2.30;99.90;;;;;;5075519;28;20219;-94
2022/01/03 01:00:33;;;;;;;3.87;2.60;;;2.40;99.90;;;;;;5074508;28;20247;-94
2022/01/03 01:03:10;;;;;;;3.40;2.33;;;2.30;99.90;;;;;;5068048;28;20295;-93
2022/01/03 01:05:42;;;;;;;4.53;2.40;;;2.30;99.90;;;;;;5069274;28;20208;-94
2022/01/03 01:08:14;;;;;;;4.87;2.50;;;2.30;99.90;;;;;;5063697;28;20200;-94
2022/01/03 01:10:46;;;;;;;3.03;2.10;;;2.40;99.90;;;;;;5058672;28;20300;-93
2022/01/03 01:13:19;;;;;;;1.50;1.20;;;2.40;99.90;;;;;;5061730;28;20228;-92
2022/01/03 01:15:50;;;;;;;2.17;1.10;;;2.60;99.90;;;;;;5067072;28;20197;-92
2022/01/03 01:18:25;;;;;;;0.90;0.80;;;2.80;99.90;;;;;;5058520;28;20223;-92
2022/01/03 01:20:56;;;;;;;1.10;0.50;;;3.60;99.90;;;;;;5072402;28;20232;-92
2022/01/03 01:23:28;;;;;;;1.90;1.80;;;4.60;99.90;;;;;;5059017;28;20208;-95
2022/01/03 01:28:49;;;;;;;0.40;0.40;;;5.80;99.90;;;;;;5075637;28;20208;-93
2022/01/03 01:31:24;;;;;;;0.50;0.40;;;5.50;99.90;;;;;;5073948;28;20204;-93
2022/01/03 01:33:58;;;;;;;0.53;0.47;;;5.30;99.90;;;;;;5073631;28;20216;-93
2022/01/03 01:36:31;;;;;;;1.37;0.70;;;5.00;99.90;;;;;;5056135;28;20191;-93
2022/01/03 01:39:05;;;;;;;0.53;0.47;;;4.80;99.90;;;;;;5073746;28;20208;-92
2022/01/03 01:41:43;;;;;;;0.57;0.50;;;4.60;99.90;;;;;;5046467;28;20232;-93
2022/01/03 01:44:16;;;;;;;1.00;0.50;;;4.40;99.90;;;;;;5061921;28;20239;-92
2022/01/03 01:46:48;;;;;;;1.93;0.90;;;4.30;99.90;;;;;;5061563;28;20215;-91
2022/01/03 01:49:24;;;;;;;1.83;0.97;;;4.10;99.90;;;;;;5064096;28;20213;-92
2022/01/03 01:52:01;;;;;;;2.73;1.50;;;4.00;99.90;;;;;;5072660;28;20211;-94
2022/01/03 01:54:33;;;;;;;2.23;1.13;;;3.90;99.90;;;;;;5094579;22;20244;-93
2022/01/03 01:57:19;;;;;;;2.80;1.27;;;3.70;99.90;;;;;;5064900;28;20204;-93
2022/01/03 02:00:05;;;;;;;1.63;1.07;;;3.50;99.90;;;;;;5066822;28;20201;-92
2022/01/03 02:02:39;;;;;;;4.20;1.27;;;3.40;99.90;;;;;;5069634;28;20263;-93
2022/01/03 02:05:21;;;;;;;3.47;1.47;;;3.30;99.90;;;;;;5072600;28;20287;-93
2022/01/03 02:08:15;;;;;;;4.63;1.33;;;3.20;99.90;;;;;;5074215;28;20235;-94
2022/01/03 02:10:54;;;;;;;4.23;1.57;;;3.10;99.90;;;;;;5067896;28;20224;-95
2022/01/03 02:13:26;;;;;;;1.60;1.13;;;3.00;99.90;;;;;;5073802;28;20569;-94
2022/01/03 02:16:03;;;;;;;1.90;1.53;;;2.90;99.90;;;;;;5068720;28;20212;-94
2022/01/03 02:18:36;;;;;;;2.13;1.40;;;2.80;99.90;;;;;;5072393;28;20231;-94
2022/01/03 02:21:09;;;;;;;1.93;1.53;;;2.80;99.90;;;;;;5067545;28;20586;-94
2022/01/03 02:23:41;;;;;;;2.80;1.40;;;2.80;99.90;;;;;;5070667;28;20204;-94
2022/01/03 02:26:12;;;;;;;1.77;1.60;;;2.70;99.90;;;;;;5069910;28;20242;-96
2022/01/03 02:28:45;;;;;;;2.57;1.40;;;2.60;99.90;;;;;;5071350;28;20210;-92
2022/01/03 02:31:17;;;;;;;8.23;1.87;;;2.60;99.90;;;;;;5075001;28;20212;-94
2022/01/03 02:33:49;;;;;;;3.83;1.60;;;2.60;99.90;;;;;;5060879;28;20280;-95
2022/01/03 02:36:23;;;;;;;3.20;1.53;;;2.60;99.90;;;;;;5062904;28;20208;-95
2022/01/03 02:38:54;;;;;;;6.27;1.90;;;2.50;99.90;;;;;;5052911;28;20193;-94
2022/01/03 02:41:25;;;;;;;2.60;1.90;;;2.50;99.90;;;;;;5049745;28;20204;-95
2022/01/03 02:43:57;;;;;;;2.67;2.07;;;2.50;99.90;;;;;;5056244;28;20245;-94
2022/01/03 02:46:29;;;;;;;2.30;1.50;;;2.50;99.90;;;;;;5054506;28;20201;-94
2022/01/03 02:49:03;;;;;;;3.77;1.50;;;2.40;99.90;;;;;;5035181;28;20239;-93
2022/01/03 02:51:36;;;;;;;4.23;1.57;;;2.40;99.90;;;;;;5052263;28;20235;-94
2022/01/03 02:54:08;;;;;;;2.07;1.10;;;2.40;99.90;;;;;;5051852;28;20221;-95
2022/01/03 02:56:39;;;;;;;3.10;1.10;;;2.40;99.90;;;;;;5054543;28;20220;-94
2022/01/03 02:59:14;;;;;;;3.40;1.80;;;2.40;99.90;;;;;;5055456;28;20205;-94
2022/01/03 03:04:21;;;;;;;1.83;1.30;;;2.30;99.90;;;;;;5229557;22;20247;-95
2022/01/03 03:06:55;;;;;;;4.87;1.43;;;2.40;99.90;;;;;;5074913;28;20208;-94
2022/01/03 03:09:31;;;;;;;2.73;1.63;;;2.30;99.90;;;;;;5069088;28;20211;-95
2022/01/03 03:12:02;;;;;;;2.30;1.60;;;2.30;99.90;;;;;;5070558;28;20204;-95
2022/01/03 03:14:34;;;;;;;2.87;1.50;;;2.30;99.90;;;;;;5068385;28;20196;-93
2022/01/03 03:17:05;;;;;;;4.70;1.70;;;2.30;99.90;;;;;;5056019;22;20224;-94
2022/01/03 03:19:54;;;;;;;2.90;1.67;;;2.20;99.90;;;;;;5058460;28;20234;-93
2022/01/03 03:22:31;;;;;;;4.53;1.63;;;2.20;99.90;;;;;;5058166;28;20221;-93
2022/01/03 03:25:07;;;;;;;2.47;1.70;;;2.20;99.90;;;;;;5038200;28;20236;-94
2022/01/03 03:27:43;;;;;;;2.70;1.80;;;2.20;99.90;;;;;;5036891;28;20212;-93
2022/01/03 03:30:18;;;;;;;6.97;1.80;;;2.20;99.90;;;;;;5046068;28;20211;-94
2022/01/03 03:32:54;;;;;;;5.13;1.90;;;2.10;99.90;;;;;;5050812;28;20205;-94
2022/01/03 03:35:26;;;;;;;7.30;2.10;;;2.10;99.90;;;;;;5031752;28;20196;-93
2022/01/03 03:37:58;;;;;;;8.63;2.07;;;2.10;99.90;;;;;;5037746;28;20225;-93
2022/01/03 03:40:30;;;;;;;5.47;2.43;;;2.10;99.90;;;;;;5044787;28;20205;-94
2022/01/03 03:43:02;;;;;;;9.80;3.30;;;2.00;99.90;;;;;;5047801;28;20224;-94
2022/01/03 03:45:34;;;;;;;18.77;4.27;;;2.10;99.90;;;;;;5020999;28;20212;-94
2022/01/03 03:48:06;;;;;;;10.23;3.90;;;2.10;99.90;;;;;;5048119;28;20288;-95
2022/01/03 03:50:38;;;;;;;8.07;4.27;;;2.00;99.90;;;;;;5050179;28;20185;-94
2022/01/03 03:53:11;;;;;;;7.10;2.87;;;2.00;99.90;;;;;;5051162;28;20207;-96
2022/01/03 03:55:44;;;;;;;4.07;2.00;;;2.00;99.90;;;;;;5050274;28;20212;-94
2022/01/03 03:58:16;;;;;;;4.17;2.07;;;2.00;99.90;;;;;;5050561;28;20204;-94
2022/01/03 04:00:47;;;;;;;4.67;1.67;;;2.00;99.90;;;;;;5053189;28;20228;-94
2022/01/03 04:03:38;;;;;;;8.10;2.00;;;2.00;99.90;;;;;;5054511;28;20216;-93
2022/01/03 04:06:10;;;;;;;2.47;1.97;;;2.00;99.90;;;;;;5051003;28;20243;-94
2022/01/03 04:08:45;;;;;;;2.50;1.80;;;2.00;99.90;;;;;;5047801;28;20296;-95
2022/01/03 04:11:17;;;;;;;2.10;1.80;;;1.90;99.90;;;;;;5046860;28;20216;-94
2022/01/03 04:13:48;;;;;;;4.40;2.13;;;1.90;99.90;;;;;;5038643;28;20653;-94
2022/01/03 04:16:20;;;;;;;4.33;2.00;;;1.90;99.90;;;;;;5021952;28;20239;-94
2022/01/03 04:18:50;;;;;;;2.57;1.87;;;1.90;99.90;;;;;;5048698;28;20227;-94
2022/01/03 04:21:22;;;;;;;3.70;2.20;;;1.90;99.90;;;;;;5052588;28;20212;-93
2022/01/03 04:23:55;;;;;;;2.83;2.10;;;1.90;99.90;;;;;;5051575;28;20236;-94
2022/01/03 04:26:26;;;;;;;2.53;1.50;;;1.80;99.90;;;;;;5051733;28;20208;-95
2022/01/03 04:28:58;;;;;;;3.33;1.40;;;1.80;99.90;;;;;;5050356;28;20200;-94
2022/01/03 04:31:30;;;;;;;4.07;1.57;;;1.90;99.90;;;;;;5049627;28;20263;-95
2022/01/03 04:34:02;;;;;;;1.90;1.47;;;1.90;99.90;;;;;;5048940;28;20268;-95
2022/01/03 04:36:34;;;;;;;1.40;1.13;;;1.90;99.90;;;;;;5031464;28;20283;-94
2022/01/03 04:39:08;;;;;;;1.90;1.30;;;1.90;99.90;;;;;;5049611;28;20212;-94
2022/01/03 04:41:40;;;;;;;1.30;1.00;;;1.90;99.90;;;;;;5044913;28;20228;-94
2022/01/03 04:44:11;;;;;;;3.93;1.40;;;1.80;99.90;;;;;;5046740;28;20267;-94
2022/01/03 04:46:41;;;;;;;2.13;1.53;;;1.70;99.90;;;;;;5037917;28;20288;-95
2022/01/03 04:49:13;;;;;;;3.63;1.37;;;1.60;99.90;;;;;;5040466;28;20205;-95
2022/01/03 04:51:45;;;;;;;6.60;1.90;;;1.60;99.90;;;;;;5537412;22;20235;-95
2022/01/03 04:54:18;;;;;;;6.73;1.77;;;1.60;99.90;;;;;;5057396;28;20238;-94
2022/01/03 04:56:49;;;;;;;1.93;1.50;;;1.70;99.90;;;;;;5056499;28;20204;-94
2022/01/03 04:59:21;;;;;;;1.97;1.67;;;1.60;99.90;;;;;;5061271;28;20236;-94
2022/01/03 05:01:51;;;;;;;2.60;1.30;;;1.70;99.90;;;;;;5060936;28;20208;-95
2022/01/03 05:04:23;;;;;;;4.50;1.57;;;1.70;99.90;;;;;;5061166;28;20258;-95
2022/01/03 05:06:54;;;;;;;1.83;1.50;;;1.70;99.90;;;;;;5047784;28;20216;-95
2022/01/03 05:09:28;;;;;;;5.57;1.80;;;1.70;99.90;;;;;;5066337;28;20231;-96
2022/01/03 05:11:59;;;;;;;5.47;2.57;;;1.80;99.90;;;;;;5065710;28;20277;-96
2022/01/03 05:14:30;;;;;;;3.80;1.90;;;1.80;99.90;;;;;;5064396;28;20208;-95
2022/01/03 05:17:02;;;;;;;5.20;2.10;;;1.70;99.90;;;;;;5062673;28;20278;-95
2022/01/03 05:19:34;;;;;;;5.90;2.53;;;1.70;99.90;;;;;;5075066;28;20216;-94
2022/01/03 05:22:05;;;;;;;3.43;2.63;;;1.60;99.90;;;;;;5073272;28;20461;-94
2022/01/03 05:24:38;;;;;;;10.20;2.43;;;1.70;99.90;;;;;;5060788;28;20239;-95
2022/01/03 05:27:09;;;;;;;11.57;2.77;;;1.70;99.90;;;;;;5063843;28;20213;-93
2022/01/03 05:29:39;;;;;;;5.13;2.30;;;1.70;99.90;;;;;;5066097;28;20204;-94
2022/01/03 05:32:10;;;;;;;6.37;3.13;;;1.70;99.90;;;;;;5070693;28;20204;-93
2022/01/03 05:34:41;;;;;;;8.10;2.40;;;1.70;99.90;;;;;;5061662;28;20230;-94
2022/01/03 05:37:13;;;;;;;6.40;3.17;;;1.60;99.90;;;;;;5045835;28;20204;-94
2022/01/03 05:39:45;;;;;;;4.27;2.07;;;1.60;99.90;;;;;;5075656;28;20209;-94
2022/01/03 05:42:17;;;;;;;3.97;2.40;;;1.60;99.90;;;;;;5079323;28;20192;-95
2022/01/03 05:44:48;;;;;;;3.67;1.97;;;1.60;99.90;;;;;;5079528;28;20254;-95
2022/01/03 05:47:18;;;;;;;5.87;2.20;;;1.60;99.90;;;;;;5078678;28;20180;-94
2022/01/03 05:49:49;;;;;;;1.83;1.57;;;1.60;99.90;;;;;;5079269;28;20335;-94
2022/01/03 05:52:21;;;;;;;4.97;1.93;;;1.60;99.90;;;;;;5078425;28;20200;-92
2022/01/03 05:54:56;;;;;;;6.07;1.80;;;1.60;99.90;;;;;;5078596;28;20204;-94
2022/01/03 05:57:27;;;;;;;5.53;1.60;;;1.60;99.90;;;;;;5076312;28;20235;-95
2022/01/03 05:59:58;;;;;;;3.97;1.70;;;1.60;99.90;;;;;;5078898;28;20235;-95
2022/01/03 06:02:35;;;;;;;2.10;1.63;;;1.60;99.90;;;;;;5077594;28;20204;-94
2022/01/03 06:05:07;;;;;;;2.67;1.80;;;1.60;99.90;;;;;;5078338;28;20608;-92
2022/01/03 06:07:39;;;;;;;2.83;1.90;;;1.60;99.90;;;;;;5075022;28;20219;-95
2022/01/03 06:10:16;;;;;;;3.60;1.50;;;1.60;99.90;;;;;;5074480;28;20574;-94
2022/01/03 06:12:47;;;;;;;14.23;1.80;;;1.50;99.90;;;;;;5077417;28;20265;-94
2022/01/03 06:15:21;;;;;;;4.53;1.70;;;1.50;99.90;;;;;;5077112;28;20204;-94
2022/01/03 06:17:53;;;;;;;1.23;1.00;;;1.50;99.90;;;;;;5058987;28;20212;-93
2022/01/03 06:20:24;;;;;;;9.83;1.87;;;1.50;99.90;;;;;;5074324;28;20200;-94
2022/01/03 06:22:55;;;;;;;2.10;1.30;;;1.50;99.90;;;;;;5067572;28;20201;-95
2022/01/03 06:25:28;;;;;;;1.37;1.23;;;1.60;99.90;;;;;;5065331;28;20731;-95
2022/01/03 06:27:59;;;;;;;4.40;1.20;;;1.50;99.90;;;;;;5064072;28;20200;-95
2022/01/03 06:30:30;;;;;;;1.63;0.87;;;1.50;99.90;;;;;;5065604;28;20208;-95
2022/01/03 06:33:00;;;;;;;3.73;1.30;;;1.50;99.90;;;;;;5065514;28;20208;-94
2022/01/03 06:35:32;;;;;;;10.53;1.40;;;1.40;99.90;;;;;;5064466;28;20223;-94
2022/01/03 06:38:04;;;;;;;3.27;1.10;;;1.40;99.90;;;;;;5064850;28;20208;-93
2022/01/03 06:40:37;;;;;;;2.77;1.40;;;1.40;99.90;;;;;;5068944;28;20278;-93
2022/01/03 06:43:08;;;;;;;6.00;2.43;;;1.30;99.90;;;;;;5062032;28;20203;-94
2022/01/03 06:45:39;;;;;;;7.07;2.67;;;1.30;99.90;;;;;;5060696;28;20594;-93
2022/01/03 06:48:10;;;;;;;4.00;2.27;;;1.30;99.90;;;;;;5061223;28;20208;-95
2022/01/03 06:50:42;;;;;;;5.33;1.40;;;1.20;99.90;;;;;;5061528;28;20284;-95
2022/01/03 06:53:13;;;;;;;1.00;0.90;;;1.30;99.90;;;;;;5045769;28;20207;-96
2022/01/03 06:55:46;;;;;;;1.83;0.90;;;1.30;99.90;;;;;;5062493;28;20223;-93
2022/01/03 06:58:17;;;;;;;1.20;0.90;;;1.30;99.90;;;;;;5081360;22;20289;-93
2022/01/03 07:00:48;;;;;;;2.23;1.03;;;1.20;99.90;;;;;;5042804;28;20232;-95
2022/01/03 07:03:19;;;;;;;1.87;0.80;;;1.30;99.90;;;;;;5041333;28;20265;-95
2022/01/03 07:05:52;;;;;;;1.00;0.60;;;1.30;99.90;;;;;;5042802;28;20221;-95
2022/01/03 07:08:23;;;;;;;2.40;0.63;;;1.30;99.90;;;;;;5040451;28;20212;-96
2022/01/03 07:10:56;;;;;;;1.33;0.67;;;1.30;99.90;;;;;;5041885;28;20304;-96
2022/01/03 07:13:31;;;;;;;3.23;0.57;;;1.20;99.90;;;;;;5042190;28;20241;-95
2022/01/03 07:18:59;;;;;;;0.90;0.67;;;1.20;99.90;;;;;;5043105;28;20231;-96
2022/01/03 07:21:32;;;;;;;2.73;0.77;;;1.30;99.90;;;;;;5039777;28;20596;-96
2022/01/03 07:24:03;;;;;;;1.90;0.60;;;1.30;99.90;;;;;;5041192;28;20239;-95
2022/01/03 07:26:36;;;;;;;0.80;0.70;;;1.20;99.90;;;;;;5039280;28;20205;-96
2022/01/03 07:29:08;;;;;;;1.37;0.63;;;1.20;99.90;;;;;;5042488;28;20220;-96
2022/01/03 07:31:39;;;;;;;3.67;0.83;;;1.20;99.90;;;;;;5038751;28;20259;-94
2022/01/03 07:34:09;;;;;;;0.50;0.40;;;1.20;99.90;;;;;;5038666;28;20288;-95
2022/01/03 07:36:40;;;;;;;0.93;0.67;;;1.10;99.90;;;;;;5038612;28;20232;-96
2022/01/03 07:39:11;;;;;;;0.90;0.50;;;1.10;99.90;;;;;;5039681;28;20208;-95
2022/01/03 07:41:45;;;;;;;1.13;0.60;;;1.10;99.90;;;;;;5039552;28;20213;-96
2022/01/03 07:44:17;;;;;;;2.60;0.77;;;1.10;99.90;;;;;;5039709;28;20779;-96
2022/01/03 07:46:48;;;;;;;1.90;0.50;;;1.10;99.90;;;;;;5039667;28;20240;-96
2022/01/03 07:49:19;;;;;;;1.10;0.50;;;1.10;99.90;;;;;;5040837;28;20223;-96
2022/01/03 07:51:50;;;;;;;1.17;0.60;;;1.00;99.90;;;;;;5040327;28;20208;-96
2022/01/03 07:54:21;;;;;;;0.50;0.50;;;1.10;99.90;;;;;;5046853;28;20201;-96
2022/01/03 07:56:55;;;;;;;0.70;0.60;;;1.10;99.90;;;;;;5049915;28;20205;-95
2022/01/03 07:59:27;;;;;;;0.60;0.50;;;1.10;99.90;;;;;;5052770;28;20243;-92
2022/01/03 08:01:59;;;;;;;0.87;0.57;;;1.10;99.90;;;;;;5049447;28;20275;-94
2022/01/03 08:04:32;;;;;;;2.83;0.47;;;1.10;99.90;;;;;;5047566;28;20225;-95
2022/01/03 08:07:04;;;;;;;0.77;0.50;;;1.10;99.90;;;;;;5043213;28;20216;-94
2022/01/03 08:09:35;;;;;;;0.60;0.60;;;1.00;99.90;;;;;;5030349;28;20243;-95
2022/01/03 08:12:09;;;;;;;1.87;0.60;;;1.00;99.90;;;;;;5041512;28;20212;-95
2022/01/03 08:14:41;;;;;;;0.83;0.70;;;1.10;99.90;;;;;;5041813;28;20208;-95
2022/01/03 08:17:11;;;;;;;0.60;0.57;;;1.00;99.90;;;;;;5039412;28;20211;-94
2022/01/03 08:19:42;;;;;;;1.97;0.73;;;1.00;99.90;;;;;;5042900;28;20201;-96
2022/01/03 08:22:14;;;;;;;1.23;1.03;;;1.00;99.90;;;;;;5043546;28;20228;-95
2022/01/03 08:24:45;;;;;;;1.57;0.70;;;1.00;99.90;;;;;;5039884;28;20719;-96
2022/01/03 08:27:18;;;;;;;1.57;0.73;;;1.00;99.90;;;;;;5021922;28;20200;-96
2022/01/03 08:29:49;;;;;;;0.87;0.50;;;1.00;99.90;;;;;;5038332;28;20282;-96
2022/01/03 08:32:21;;;;;;;0.50;0.40;;;1.00;99.90;;;;;;5041581;28;20201;-96
2022/01/03 08:34:51;;;;;;;0.70;0.60;;;1.00;99.90;;;;;;5053189;28;20655;-96
2022/01/03 08:37:22;;;;;;;0.67;0.50;;;1.00;99.90;;;;;;5057951;28;20278;-96
2022/01/03 08:39:53;;;;;;;1.83;0.70;;;1.00;99.90;;;;;;5044848;28;20235;-95
2022/01/03 08:42:26;;;;;;;1.10;0.73;;;1.00;99.90;;;;;;5043120;28;20268;-96
2022/01/03 08:44:57;;;;;;;1.57;1.13;;;1.00;99.90;;;;;;5041949;28;20232;-96
2022/01/03 08:47:28;;;;;;;4.97;1.80;;;1.00;99.90;;;;;;5021375;28;20205;-95
2022/01/03 08:49:59;;;;;;;3.67;2.03;;;1.00;99.90;;;;;;5022356;28;20213;-94
2022/01/03 08:52:30;;;;;;;2.20;1.70;;;1.10;99.90;;;;;;5022045;28;20256;-95
2022/01/03 08:55:01;;;;;;;3.27;1.50;;;1.00;99.90;;;;;;5022701;28;20277;-95
2022/01/03 08:57:34;;;;;;;1.30;1.20;;;1.10;99.90;;;;;;5022183;28;20241;-95
2022/01/03 09:00:10;;;;;;;1.73;1.47;;;1.10;99.90;;;;;;5022467;28;20258;-95
2022/01/03 09:02:42;;;;;;;1.07;0.87;;;1.10;99.90;;;;;;5005455;28;20670;-95
2022/01/03 09:05:12;;;;;;;0.67;0.60;;;1.10;99.90;;;;;;5023348;28;20257;-96
2022/01/03 09:07:44;;;;;;;0.80;0.60;;;1.00;99.90;;;;;;5033019;28;20216;-96
2022/01/03 09:10:20;;;;;;;2.27;1.10;;;1.00;99.90;;;;;;5049051;28;20224;-95
2022/01/03 09:12:53;;;;;;;1.00;0.70;;;1.00;99.90;;;;;;5045102;28;20213;-96
2022/01/03 09:15:24;;;;;;;1.53;0.90;;;1.00;99.90;;;;;;5047701;28;20668;-95
2022/01/03 09:17:55;;;;;;;2.30;1.63;;;1.00;99.90;;;;;;5045162;28;20714;-96
2022/01/03 09:20:27;;;;;;;1.73;0.90;;;1.00;99.90;;;;;;5045392;28;20577;-96
2022/01/03 09:23:07;;;;;;;5.97;1.00;;;1.00;99.90;;;;;;5043045;28;20256;-96
2022/01/03 09:31:14;;;;;;;0.90;0.60;;;1.00;99.90;;;;;;5042092;28;20575;-96
2022/01/03 09:33:46;;;;;;;2.20;0.80;;;1.00;99.90;;;;;;5040840;28;20209;-96
2022/01/03 09:36:16;;;;;;;1.43;0.80;;;1.00;99.90;;;;;;5041466;28;20262;-96
2022/01/03 09:38:48;;;;;;;1.57;1.00;;;1.00;99.90;;;;;;5040089;28;20220;-96
2022/01/03 09:41:22;;;;;;;1.00;0.73;;;1.10;99.90;;;;;;5043238;28;20209;-96
2022/01/03 09:43:56;;;;;;;2.27;0.80;;;1.10;99.90;;;;;;5039952;28;20315;-96
2022/01/03 09:46:29;;;;;;;3.10;0.70;;;1.10;99.90;;;;;;5030369;28;20272;-96
2022/01/03 09:49:00;;;;;;;1.20;0.80;;;1.10;99.90;;;;;;5026154;28;20685;-94
2022/01/03 09:51:33;;;;;;;0.93;0.80;;;1.10;99.90;;;;;;5039416;28;20205;-95
2022/01/03 09:54:07;;;;;;;2.03;0.80;;;1.10;99.90;;;;;;5041523;28;20825;-96
2022/01/03 09:56:40;;;;;;;2.10;0.97;;;1.20;99.90;;;;;;5042057;28;20205;-95
2022/01/03 09:59:15;;;;;;;2.03;1.00;;;1.20;99.90;;;;;;5042751;28;20255;-95
2022/01/03 10:01:47;;;;;;;1.23;0.90;;;1.30;99.90;;;;;;5039062;28;20655;-96
2022/01/03 10:04:18;;;;;;;1.27;0.97;;;1.30;99.90;;;;;;5041626;28;20219;-95
2022/01/03 10:06:49;;;;;;;1.40;0.80;;;1.40;99.90;;;;;;5038819;28;20271;-96
2022/01/03 10:09:22;;;;;;;0.73;0.70;;;1.30;99.90;;;;;;5040269;28;20237;-96
2022/01/03 10:11:53;;;;;;;1.00;0.80;;;1.30;99.90;;;;;;5040835;28;20263;-94
2022/01/03 10:14:26;;;;;;;0.67;0.60;;;1.20;99.90;;;;;;5049741;28;20221;-94
2022/01/03 10:16:58;;;;;;;0.70;0.67;;;1.30;99.90;;;;;;5055473;28;20274;-95
2022/01/03 10:19:30;;;;;;;2.73;0.90;;;1.30;99.90;;;;;;5051902;28;20268;-96
2022/01/03 10:22:04;;;;;;;5.03;0.90;;;1.30;99.90;;;;;;5065030;28;20204;-94
2022/01/03 10:24:37;;;;;;;2.37;1.00;;;1.30;99.90;;;;;;5074472;28;20196;-95
2022/01/03 10:27:07;;;;;;;2.37;0.70;;;1.30;99.90;;;;;;5050968;28;20260;-96
2022/01/03 10:29:41;;;;;;;1.00;0.70;;;1.30;99.90;;;;;;5040450;28;20212;-95
2022/01/03 10:32:14;;;;;;;5.27;0.80;;;1.30;99.90;;;;;;5031560;28;20233;-95
2022/01/03 10:34:45;;;;;;;1.70;0.90;;;1.30;99.90;;;;;;5022097;28;20277;-95
2022/01/03 10:37:15;;;;;;;1.40;0.80;;;1.30;99.90;;;;;;5019555;28;20213;-96
2022/01/03 10:39:47;;;;;;;8.30;0.83;;;1.30;99.90;;;;;;5021945;28;20569;-96
2022/01/03 10:42:19;;;;;;;3.20;0.80;;;1.30;99.90;;;;;;5021603;28;20232;-96
2022/01/03 10:44:52;;;;;;;1.03;0.70;;;1.40;99.90;;;;;;5003911;28;20221;-96
2022/01/03 10:47:33;;;;;;;2.90;0.83;;;1.40;99.90;;;;;;5020971;28;20232;-96
2022/01/03 10:50:15;;;;;;;1.30;0.67;;;1.40;99.90;;;;;;5023579;28;20213;-96
2022/01/03 10:52:49;;;;;;;0.83;0.53;;;1.40;99.90;;;;;;5021386;28;20197;-95
2022/01/03 10:55:23;;;;;;;0.50;0.40;;;1.40;99.90;;;;;;5018923;28;20202;-95
2022/01/03 10:57:56;;;;;;;1.53;0.90;;;1.40;99.90;;;;;;5020797;28;20670;-95
2022/01/03 11:00:32;;;;;;;0.80;0.80;;;1.40;99.90;;;;;;5005130;28;20232;-95
2022/01/03 11:03:28;;;;;;;3.17;1.00;;;1.40;99.90;;;;;;5020606;28;20220;-95
2022/01/03 11:06:08;;;;;;;2.40;1.00;;;1.40;99.90;;;;;;5001818;28;20233;-94
2022/01/03 11:11:39;;;;;;;3.10;1.20;;;1.40;99.90;;;;;;5018901;28;20213;-95
2022/01/03 11:14:33;;;;;;;0.97;0.90;;;1.40;99.90;;;;;;5018931;28;20216;-95
2022/01/03 11:17:24;;;;;;;1.30;1.00;;;1.30;99.90;;;;;;5018157;28;20296;-95
2022/01/03 11:19:57;;;;;;;3.73;1.07;;;1.40;99.90;;;;;;5018647;28;20209;-95
2022/01/03 11:22:49;;;;;;;2.93;1.10;;;1.40;99.90;;;;;;5018601;28;20271;-96
2022/01/03 11:25:31;;;;;;;0.70;0.70;;;1.40;99.90;;;;;;5018158;28;20213;-96
2022/01/03 11:28:03;;;;;;;1.27;1.00;;;1.40;99.90;;;;;;5003760;28;20324;-93
2022/01/03 11:30:34;;;;;;;2.90;1.10;;;1.30;99.90;;;;;;5033756;28;20197;-95
2022/01/03 11:33:08;;;;;;;1.53;1.10;;;1.30;99.90;;;;;;5036707;28;20294;-95
2022/01/03 11:35:40;;;;;;;2.33;0.90;;;1.40;99.90;;;;;;5036605;28;20193;-96
2022/01/03 11:38:11;;;;;;;1.37;1.10;;;1.30;99.90;;;;;;5045574;28;20223;-95
2022/01/03 11:40:43;;;;;;;0.60;0.60;;;1.30;99.90;;;;;;5052183;28;20197;-94
2022/01/03 11:43:14;;;;;;;3.07;0.70;;;1.40;99.90;;;;;;5054203;28;20211;-95
2022/01/03 11:45:46;;;;;;;1.00;0.63;;;1.40;99.90;;;;;;5043346;28;20258;-95
2022/01/03 11:48:19;;;;;;;1.80;1.00;;;1.40;99.90;;;;;;5038393;28;20666;-95
2022/01/03 11:50:54;;;;;;;2.50;1.23;;;1.40;99.90;;;;;;5039457;28;20264;-95
2022/01/03 11:53:25;;;;;;;1.77;0.93;;;1.40;99.90;;;;;;5045524;28;20213;-96
2022/01/03 11:55:58;;;;;;;1.70;1.10;;;1.50;99.90;;;;;;5048498;28;20568;-95
2022/01/03 11:58:54;;;;;;;1.60;1.00;;;1.40;99.90;;;;;;5046967;28;20286;-94
2022/01/03 12:05:01;;;;;;;2.30;1.40;;;1.50;99.90;;;;;;5032879;28;20219;-95
2022/01/03 12:07:32;;;;;;;1.17;0.90;;;1.50;99.90;;;;;;5045583;28;20228;-95
2022/01/03 12:10:11;;;;;;;1.67;0.90;;;1.50;99.90;;;;;;5045426;28;20208;-95
2022/01/03 12:12:43;;;;;;;1.00;0.80;;;1.60;99.90;;;;;;5045953;28;20200;-94
2022/01/03 12:15:33;;;;;;;1.73;0.60;;;1.60;99.90;;;;;;5045363;28;20630;-94
2022/01/03 12:18:26;;;;;;;2.60;0.60;;;1.60;99.90;;;;;;5039209;28;20209;-94
2022/01/03 12:21:00;;;;;;;0.40;0.40;;;1.60;99.90;;;;;;5037589;28;20235;-95
2022/01/03 12:23:42;;;;;;;4.30;0.67;;;1.80;99.90;;;;;;5039875;28;20216;-96
2022/01/03 12:26:16;;;;;;;0.40;0.40;;;1.80;99.90;;;;;;5036642;28;20243;-93
2022/01/03 12:29:09;;;;;;;0.70;0.70;;;1.80;99.90;;;;;;5040098;28;20212;-95
2022/01/03 12:32:13;;;;;;;1.97;0.73;;;1.80;99.90;;;;;;5040322;28;20224;-95
2022/01/03 12:34:44;;;;;;;1.37;0.80;;;1.80;99.90;;;;;;5029440;28;20225;-95
2022/01/03 12:37:19;;;;;;;0.70;0.60;;;1.80;99.90;;;;;;5035306;28;20189;-96
2022/01/03 12:40:16;;;;;;;0.70;0.50;;;1.80;99.90;;;;;;5026836;28;20223;-95
2022/01/03 12:42:59;;;;;;;0.73;0.57;;;1.70;99.90;;;;;;5016018;28;20247;-94
2022/01/03 12:45:57;;;;;;;1.07;0.43;;;1.70;99.90;;;;;;5027358;28;20197;-95
2022/01/03 12:48:33;;;;;;;0.70;0.40;;;1.70;99.90;;;;;;5002435;28;20229;-95
2022/01/03 12:51:15;;;;;;;0.90;0.70;;;1.70;99.90;;;;;;5037703;28;20208;-91
2022/01/03 12:53:53;;;;;;;0.47;0.40;;;1.70;99.90;;;;;;5037305;28;20614;-95
2022/01/03 12:56:33;;;;;;;1.87;0.50;;;1.70;99.90;;;;;;5039860;28;20200;-95
2022/01/03 12:59:16;;;;;;;0.50;0.40;;;1.70;99.90;;;;;;5036079;28;20736;-95
2022/01/03 13:01:48;;;;;;;5.00;0.50;;;1.70;99.90;;;;;;5035796;28;20215;-95
2022/01/03 13:04:26;;;;;;;1.70;0.60;;;1.70;99.90;;;;;;5036063;28;20216;-94
2022/01/03 13:07:06;;;;;;;4.73;0.43;;;1.70;99.90;;;;;;5018505;28;20603;-94
2022/01/03 13:09:42;;;;;;;3.53;0.50;;;1.70;99.90;;;;;;5035861;28;20263;-95
2022/01/03 13:12:13;;;;;;;0.60;0.50;;;1.70;99.90;;;;;;5035963;28;20204;-94
2022/01/03 13:14:44;;;;;;;0.40;0.40;;;1.70;99.90;;;;;;5037032;28;20212;-96
2022/01/03 13:17:16;;;;;;;0.30;0.30;;;1.70;99.90;;;;;;5038449;28;20283;-95
2022/01/03 13:19:47;;;;;;;0.47;0.47;;;1.70;99.90;;;;;;5045957;28;20291;-96
2022/01/03 13:22:18;;;;;;;1.80;0.50;;;1.70;99.90;;;;;;5045821;28;20228;-95
2022/01/03 13:24:51;;;;;;;2.57;0.40;;;1.70;99.90;;;;;;5046007;28;20248;-94
2022/01/03 13:27:22;;;;;;;0.53;0.30;;;1.70;99.90;;;;;;5044396;28;20259;-93
2022/01/03 13:29:54;;;;;;;0.30;0.30;;;1.70;99.90;;;;;;5044147;28;20209;-95
2022/01/03 13:32:27;;;;;;;0.50;0.33;;;1.70;99.90;;;;;;5046147;28;20208;-93
2022/01/03 13:35:02;;;;;;;0.30;0.30;;;1.70;99.90;;;;;;5050408;28;20209;-94
2022/01/03 13:37:33;;;;;;;0.40;0.20;;;1.70;99.90;;;;;;5044731;28;20323;-94
2022/01/03 13:40:07;;;;;;;0.23;0.20;;;1.60;99.90;;;;;;5045466;28;20231;-94
2022/01/03 13:42:44;;;;;;;2.23;0.20;;;1.60;99.90;;;;;;5041787;28;20205;-95
2022/01/03 13:49:11;;;;;;;0.40;0.30;;;1.60;99.90;;;;;;5022145;28;20213;-95
2022/01/03 13:51:08;;;;;;;0.57;0.30;;;1.60;99.90;;;;;;5039257;28;20205;-92
2022/01/03 13:53:51;;;;;;;0.53;0.30;;;1.60;99.90;;;;;;5039266;28;20212;-96
2022/01/03 13:56:24;;;;;;;0.50;0.40;;;1.60;99.90;;;;;;5020918;28;20292;-94